createdAt,value
2017-11-29T00:00:35.176Z,6.17
2017-11-29T00:01:35.275Z,6.28
2017-11-29T00:02:35.217Z,6.06
2017-11-29T00:03:34.730Z,6.17
2017-11-29T00:04:35.220Z,6.25
2017-11-29T00:06:35.254Z,6.17
2017-11-29T00:09:35.419Z,6.21
2017-11-29T00:10:35.346Z,6.25
2017-11-29T00:11:35.385Z,6.18
2017-11-29T00:12:35.357Z,6.3
2017-11-29T00:13:35.399Z,6.21
2017-11-29T00:14:35.391Z,6.19
2017-11-29T00:15:50.099Z,6.27
2017-11-29T00:16:35.446Z,6.25
2017-11-29T00:17:35.204Z,6.19
2017-11-29T00:18:35.491Z,6.11
2017-11-29T00:19:35.491Z,6.08
2017-11-29T00:20:35.502Z,6.21
2017-11-29T00:21:35.501Z,6.04
2017-11-29T00:22:35.568Z,6.22
2017-11-29T00:23:35.554Z,6.19
2017-11-29T00:24:35.574Z,6.25
2017-11-29T00:25:35.611Z,6.08
2017-11-29T00:26:35.593Z,6.14
2017-11-29T00:27:35.632Z,6.14
2017-11-29T00:28:35.642Z,6.06
2017-11-29T00:29:35.408Z,6.11
2017-11-29T00:30:50.349Z,6.12
2017-11-29T00:31:35.673Z,6.11
2017-11-29T00:32:50.362Z,6.12
2017-11-29T00:33:35.470Z,6.03
2017-11-29T00:34:35.488Z,6.15
2017-11-29T00:35:35.476Z,6.12
2017-11-29T00:36:35.767Z,6.01
2017-11-29T00:37:35.794Z,6.15
2017-11-29T00:38:35.802Z,6.06
2017-11-29T00:39:50.473Z,6.09
2017-11-29T00:40:35.578Z,6.04
2017-11-29T00:41:35.858Z,5.99
2017-11-29T00:42:35.900Z,5.99
2017-11-29T00:43:35.882Z,6.11
2017-11-29T00:45:35.916Z,6.15
2017-11-29T00:46:35.914Z,6.08
2017-11-29T00:47:35.955Z,6.12
2017-11-29T00:48:35.704Z,6.14
2017-11-29T00:49:35.972Z,6.08
2017-11-29T00:50:35.740Z,5.97
2017-11-29T00:51:35.997Z,5.99
2017-11-29T00:52:36.058Z,6.04
2017-11-29T00:53:36.031Z,6.08
2017-11-29T00:54:50.726Z,6.04
2017-11-29T00:55:36.095Z,6.03
2017-11-29T00:56:36.099Z,6.08
2017-11-29T00:57:36.135Z,5.99
2017-11-29T00:58:36.114Z,5.83
2017-11-29T00:59:36.147Z,5.94
2017-11-29T01:00:36.172Z,6.04
2017-11-29T01:01:36.193Z,6.01
2017-11-29T01:02:50.877Z,6
2017-11-29T01:03:36.238Z,5.97
2017-11-29T01:04:36.242Z,5.99
2017-11-29T01:05:50.928Z,5.96
2017-11-29T01:06:36.250Z,5.94
2017-11-29T01:07:36.307Z,5.85
2017-11-29T01:08:36.298Z,5.82
2017-11-29T01:09:36.314Z,5.85
2017-11-29T01:10:36.335Z,5.86
2017-11-29T01:11:36.332Z,5.83
2017-11-29T01:13:36.404Z,5.75
2017-11-29T01:15:36.428Z,5.83
2017-11-29T01:16:36.438Z,5.83
2017-11-29T01:17:36.444Z,5.72
2017-11-29T01:18:51.141Z,5.68
2017-11-29T01:19:36.487Z,5.63
2017-11-29T01:21:36.511Z,5.63
2017-11-29T01:22:36.537Z,5.56
2017-11-29T01:23:36.550Z,5.56
2017-11-29T01:24:36.538Z,5.46
2017-11-29T01:25:36.580Z,5.42
2017-11-29T01:26:36.701Z,5.4
2017-11-29T01:27:36.612Z,5.4
2017-11-29T01:28:36.661Z,5.48
2017-11-29T01:29:36.668Z,5.45
2017-11-29T01:30:36.678Z,5.33
2017-11-29T01:31:36.693Z,5.24
2017-11-29T01:32:36.694Z,5.2
2017-11-29T01:33:36.713Z,5.22
2017-11-29T01:34:51.400Z,5.2
2017-11-29T01:35:36.239Z,5.21
2017-11-29T01:37:36.804Z,5.07
2017-11-29T01:38:36.873Z,5.06
2017-11-29T01:39:36.814Z,5
2017-11-29T01:40:36.820Z,4.91
2017-11-29T01:41:36.837Z,4.89
2017-11-29T01:42:36.850Z,4.82
2017-11-29T01:43:36.858Z,4.91
2017-11-29T01:45:36.908Z,4.77
2017-11-29T01:46:36.917Z,4.73
2017-11-29T01:47:36.934Z,4.75
2017-11-29T01:48:36.980Z,4.78
2017-11-29T01:49:51.643Z,4.73
2017-11-29T01:50:51.641Z,4.88
2017-11-29T01:51:36.727Z,4.7
2017-11-29T01:52:37.048Z,4.7
2017-11-29T01:53:37.030Z,4.75
2017-11-29T01:54:37.050Z,4.73
2017-11-29T01:56:37.105Z,4.77
2017-11-29T01:57:37.098Z,4.85
2017-11-29T01:58:37.115Z,4.72
2017-11-29T01:59:37.133Z,4.73
2017-11-29T02:00:37.145Z,4.84
2017-11-29T02:01:37.164Z,4.89
2017-11-29T02:02:37.224Z,4.86
2017-11-29T02:03:37.216Z,4.92
2017-11-29T02:04:37.189Z,4.88
2017-11-29T02:05:51.898Z,4.91
2017-11-29T02:06:37.236Z,4.89
2017-11-29T02:07:37.005Z,4.92
2017-11-29T02:08:37.312Z,4.92
2017-11-29T02:09:37.387Z,4.97
2017-11-29T02:10:37.306Z,5
2017-11-29T02:11:37.324Z,4.97
2017-11-29T02:12:37.344Z,5
2017-11-29T02:13:37.381Z,5.12
2017-11-29T02:14:37.391Z,5.07
2017-11-29T02:15:37.382Z,4.88
2017-11-29T02:16:37.399Z,5.07
2017-11-29T02:17:37.437Z,5.03
2017-11-29T02:18:37.197Z,5.06
2017-11-29T02:19:37.487Z,4.97
2017-11-29T02:20:52.226Z,4.96
2017-11-29T02:21:37.503Z,4.92
2017-11-29T02:22:37.478Z,4.94
2017-11-29T02:23:37.518Z,4.84
2017-11-29T02:24:37.515Z,4.88
2017-11-29T02:25:37.545Z,4.86
2017-11-29T02:26:37.562Z,4.88
2017-11-29T02:27:37.566Z,4.82
2017-11-29T02:28:37.601Z,4.77
2017-11-29T02:29:37.606Z,4.78
2017-11-29T02:30:37.665Z,4.89
2017-11-29T02:31:37.624Z,5
2017-11-29T02:32:37.667Z,4.88
2017-11-29T02:33:37.705Z,5.04
2017-11-29T02:34:37.717Z,4.86
2017-11-29T02:35:37.455Z,4.88
2017-11-29T02:36:37.750Z,4.82
2017-11-29T02:37:52.423Z,4.78
2017-11-29T02:38:37.788Z,4.84
2017-11-29T02:39:37.776Z,4.82
2017-11-29T02:40:37.801Z,4.8
2017-11-29T02:41:52.480Z,4.69
2017-11-29T02:42:52.488Z,4.65
2017-11-29T02:43:37.327Z,4.72
2017-11-29T02:44:37.328Z,4.67
2017-11-29T02:45:37.969Z,4.63
2017-11-29T02:47:37.906Z,4.66
2017-11-29T02:48:37.911Z,4.72
2017-11-29T02:49:37.952Z,4.58
2017-11-29T02:50:37.706Z,4.44
2017-11-29T02:51:37.686Z,4.42
2017-11-29T02:52:37.972Z,4.45
2017-11-29T02:53:52.679Z,4.42
2017-11-29T02:54:38.041Z,4.44
2017-11-29T02:55:38.028Z,4.45
2017-11-29T02:56:38.028Z,4.44
2017-11-29T02:57:38.061Z,4.42
2017-11-29T02:58:38.053Z,4.37
2017-11-29T02:59:38.076Z,4.4
2017-11-29T03:00:38.143Z,4.33
2017-11-29T03:02:38.141Z,4.37
2017-11-29T03:03:38.152Z,4.36
2017-11-29T03:04:38.146Z,4.34
2017-11-29T03:05:38.206Z,4.37
2017-11-29T03:06:38.204Z,4.34
2017-11-29T03:07:38.207Z,4.32
2017-11-29T03:08:38.242Z,4.18
2017-11-29T03:09:52.924Z,4.23
2017-11-29T03:10:38.238Z,4.16
2017-11-29T03:11:38.262Z,4.11
2017-11-29T03:12:38.289Z,4.16
2017-11-29T03:13:38.321Z,4.16
2017-11-29T03:14:38.332Z,4.14
2017-11-29T03:15:38.355Z,4.09
2017-11-29T03:16:38.355Z,4.02
2017-11-29T03:17:38.379Z,3.9
2017-11-29T03:18:38.396Z,3.9
2017-11-29T03:19:38.406Z,3.84
2017-11-29T03:20:38.415Z,3.87
2017-11-29T03:21:38.430Z,3.8
2017-11-29T03:22:53.129Z,3.7
2017-11-29T03:23:38.485Z,3.75
2017-11-29T03:24:38.456Z,3.79
2017-11-29T03:25:53.215Z,3.6
2017-11-29T03:26:38.545Z,3.6
2017-11-29T03:27:38.548Z,3.58
2017-11-29T03:28:38.546Z,3.62
2017-11-29T03:29:38.565Z,3.68
2017-11-29T03:30:53.232Z,3.58
2017-11-29T03:31:38.322Z,3.61
2017-11-29T03:32:53.263Z,3.6
2017-11-29T03:33:53.296Z,3.52
2017-11-29T03:34:38.616Z,3.58
2017-11-29T03:35:38.630Z,3.58
2017-11-29T03:37:38.710Z,3.6
2017-11-29T03:38:38.701Z,3.6
2017-11-29T03:39:38.693Z,3.61
2017-11-29T03:41:38.732Z,3.52
2017-11-29T03:42:38.741Z,3.58
2017-11-29T03:43:38.796Z,3.62
2017-11-29T03:44:38.792Z,3.58
2017-11-29T03:45:53.484Z,3.75
2017-11-29T03:46:38.852Z,3.61
2017-11-29T03:47:38.816Z,3.66
2017-11-29T03:48:38.856Z,3.5
2017-11-29T03:49:38.873Z,3.57
2017-11-29T03:50:38.925Z,3.57
2017-11-29T03:51:38.901Z,3.45
2017-11-29T03:52:38.910Z,3.48
2017-11-29T03:53:38.934Z,3.39
2017-11-29T03:54:38.927Z,3.32
2017-11-29T03:55:38.703Z,3.33
2017-11-29T03:56:38.976Z,3.26
2017-11-29T03:57:39.021Z,3.17
2017-11-29T03:58:39.010Z,3.17
2017-11-29T03:59:39.208Z,3.14
2017-11-29T04:00:39.043Z,3.14
2017-11-29T04:01:39.063Z,3.08
2017-11-29T04:02:39.053Z,3.08
2017-11-29T04:03:39.071Z,3.18
2017-11-29T04:05:39.136Z,3.1
2017-11-29T04:06:39.128Z,3
2017-11-29T04:07:39.178Z,3.08
2017-11-29T04:08:39.172Z,3.1
2017-11-29T04:09:39.160Z,3.13
2017-11-29T04:10:38.965Z,3.03
2017-11-29T04:11:39.205Z,3.05
2017-11-29T04:12:53.895Z,2.99
2017-11-29T04:13:39.237Z,3.08
2017-11-29T04:14:39.253Z,3.05
2017-11-29T04:15:39.245Z,3.08
2017-11-29T04:16:39.034Z,3.06
2017-11-29T04:17:39.320Z,3
2017-11-29T04:18:39.326Z,3.06
2017-11-29T04:19:39.376Z,2.9
2017-11-29T04:20:39.372Z,2.96
2017-11-29T04:21:39.357Z,2.87
2017-11-29T04:22:39.352Z,2.93
2017-11-29T04:23:39.372Z,2.92
2017-11-29T04:24:39.410Z,2.84
2017-11-29T04:25:39.430Z,2.96
2017-11-29T04:26:39.438Z,2.95
2017-11-29T04:27:39.444Z,2.96
2017-11-29T04:28:54.130Z,2.96
2017-11-29T04:29:39.455Z,2.99
2017-11-29T04:30:39.502Z,2.99
2017-11-29T04:31:39.511Z,3.02
2017-11-29T04:32:39.546Z,3.08
2017-11-29T04:33:39.551Z,3.03
2017-11-29T04:34:39.554Z,3.02
2017-11-29T04:35:39.575Z,3.06
2017-11-29T04:36:39.585Z,3.03
2017-11-29T04:37:39.594Z,3.18
2017-11-29T04:38:39.586Z,3.17
2017-11-29T04:39:39.632Z,3.21
2017-11-29T04:40:39.648Z,3.18
2017-11-29T04:41:39.660Z,3.08
2017-11-29T04:42:39.670Z,3.21
2017-11-29T04:43:39.673Z,3.15
2017-11-29T04:44:54.350Z,3.05
2017-11-29T04:45:39.780Z,3.14
2017-11-29T04:46:39.715Z,3.05
2017-11-29T04:47:39.741Z,3.13
2017-11-29T04:48:39.737Z,3.03
2017-11-29T04:49:54.444Z,2.93
2017-11-29T04:50:39.807Z,3.1
2017-11-29T04:51:39.786Z,3
2017-11-29T04:52:39.821Z,3.02
2017-11-29T04:53:39.848Z,3.03
2017-11-29T04:54:39.837Z,3.23
2017-11-29T04:55:39.865Z,3.06
2017-11-29T04:56:39.621Z,3.05
2017-11-29T04:57:39.922Z,2.99
2017-11-29T04:58:39.646Z,3.08
2017-11-29T04:59:39.907Z,2.99
2017-11-29T05:00:54.615Z,3
2017-11-29T05:01:39.937Z,2.9
2017-11-29T05:02:39.992Z,2.82
2017-11-29T05:03:39.986Z,2.82
2017-11-29T05:04:54.669Z,2.79
2017-11-29T05:05:40.011Z,2.79
2017-11-29T05:06:54.687Z,2.74
2017-11-29T05:07:40.078Z,2.66
2017-11-29T05:08:39.801Z,2.67
2017-11-29T05:09:40.059Z,2.54
2017-11-29T05:11:40.126Z,2.56
2017-11-29T05:12:40.131Z,2.48
2017-11-29T05:13:40.140Z,2.42
2017-11-29T05:14:40.135Z,2.56
2017-11-29T05:15:54.840Z,2.45
2017-11-29T05:16:40.181Z,2.45
2017-11-29T05:17:40.191Z,2.54
2017-11-29T05:18:40.252Z,2.49
2017-11-29T05:19:54.891Z,2.45
2017-11-29T05:20:54.889Z,2.41
2017-11-29T05:21:40.225Z,2.39
2017-11-29T05:22:40.270Z,2.39
2017-11-29T05:23:40.049Z,2.35
2017-11-29T05:24:40.311Z,2.3
2017-11-29T05:25:40.316Z,2.3
2017-11-29T05:26:40.321Z,2.24
2017-11-29T05:27:40.365Z,2.31
2017-11-29T05:28:40.332Z,2.27
2017-11-29T05:29:40.374Z,2.28
2017-11-29T05:30:40.417Z,2.3
2017-11-29T05:31:40.381Z,2.23
2017-11-29T05:32:40.404Z,2.2
2017-11-29T05:33:40.427Z,2.2
2017-11-29T05:34:40.443Z,2.14
2017-11-29T05:35:40.461Z,2.06
2017-11-29T05:36:40.489Z,2.09
2017-11-29T05:37:40.480Z,2.09
2017-11-29T05:38:40.520Z,2.12
2017-11-29T05:40:40.557Z,2.16
2017-11-29T05:41:40.541Z,2.1
2017-11-29T05:43:40.609Z,2.18
2017-11-29T05:44:40.569Z,2.18
2017-11-29T05:45:40.364Z,2.24
2017-11-29T05:46:40.630Z,2.23
2017-11-29T05:47:55.302Z,2.24
2017-11-29T05:48:40.661Z,2.1
2017-11-29T05:49:55.317Z,2.2
2017-11-29T05:50:40.677Z,2.1
2017-11-29T05:51:40.710Z,2.16
2017-11-29T05:52:40.731Z,2.27
2017-11-29T05:53:40.462Z,2.28
2017-11-29T05:54:40.742Z,2.31
2017-11-29T05:55:40.749Z,2.28
2017-11-29T05:56:40.772Z,2.25
2017-11-29T05:57:40.750Z,2.18
2017-11-29T05:58:40.805Z,2.21
2017-11-29T06:00:40.845Z,2.07
2017-11-29T06:01:40.852Z,2.17
2017-11-29T06:02:40.853Z,2.25
2017-11-29T06:03:55.533Z,2.18
2017-11-29T06:04:40.897Z,2.21
2017-11-29T06:05:40.896Z,2.23
2017-11-29T06:06:40.921Z,2.18
2017-11-29T06:07:40.937Z,2.17
2017-11-29T06:08:40.659Z,2.21
2017-11-29T06:09:40.684Z,2.28
2017-11-29T06:10:55.620Z,2.23
2017-11-29T06:11:55.665Z,2.25
2017-11-29T06:12:40.995Z,2.2
2017-11-29T06:14:55.706Z,2.25
2017-11-29T06:15:41.031Z,2.3
2017-11-29T06:18:41.059Z,2.3
2017-11-29T06:20:41.111Z,2.41
2017-11-29T06:21:41.137Z,2.46
2017-11-29T06:22:41.122Z,2.38
2017-11-29T06:23:41.137Z,2.35
2017-11-29T06:24:41.146Z,2.48
2017-11-29T06:25:55.582Z,2.43
2017-11-29T06:26:40.932Z,2.53
2017-11-29T06:27:41.206Z,2.49
2017-11-29T06:28:41.246Z,2.59
2017-11-29T06:29:41.220Z,2.53
2017-11-29T06:30:41.271Z,2.67
2017-11-29T06:31:41.271Z,2.72
2017-11-29T06:32:41.286Z,2.75
2017-11-29T06:33:41.038Z,2.81
2017-11-29T06:34:41.284Z,2.75
2017-11-29T06:36:41.093Z,2.81
2017-11-29T06:37:41.093Z,2.84
2017-11-29T06:38:41.365Z,2.89
2017-11-29T06:39:41.400Z,2.84
2017-11-29T06:40:41.404Z,2.95
2017-11-29T06:41:41.429Z,2.87
2017-11-29T06:42:41.428Z,2.87
2017-11-29T06:43:41.200Z,2.78
2017-11-29T06:44:56.136Z,2.77
2017-11-29T06:46:41.496Z,2.78
2017-11-29T06:47:41.483Z,2.72
2017-11-29T06:48:41.497Z,2.78
2017-11-29T06:49:41.533Z,2.79
2017-11-29T06:50:56.214Z,2.72
2017-11-29T06:51:41.561Z,2.79
2017-11-29T06:52:41.601Z,2.85
2017-11-29T06:53:41.603Z,2.84
2017-11-29T06:54:56.261Z,2.9
2017-11-29T06:55:41.596Z,2.96
2017-11-29T06:56:41.621Z,2.95
2017-11-29T06:57:41.642Z,2.84
2017-11-29T06:58:41.650Z,2.96
2017-11-29T07:00:41.667Z,2.82
2017-11-29T07:01:41.751Z,2.81
2017-11-29T07:02:41.724Z,2.82
2017-11-29T07:03:41.708Z,2.82
2017-11-29T07:04:41.761Z,2.93
2017-11-29T07:05:41.792Z,2.93
2017-11-29T07:06:41.817Z,2.85
2017-11-29T07:07:41.792Z,2.81
2017-11-29T07:08:41.822Z,2.82
2017-11-29T07:09:41.822Z,2.87
2017-11-29T07:10:41.869Z,2.93
2017-11-29T07:11:41.848Z,2.84
2017-11-29T07:12:41.851Z,2.81
2017-11-29T07:13:56.538Z,2.99
2017-11-29T07:14:41.634Z,2.97
2017-11-29T07:15:41.893Z,3.03
2017-11-29T07:16:41.942Z,2.92
2017-11-29T07:17:41.995Z,3.03
2017-11-29T07:18:56.366Z,3.08
2017-11-29T07:19:41.972Z,3.02
2017-11-29T07:20:41.995Z,3.03
2017-11-29T07:22:56.672Z,3.13
2017-11-29T07:23:42.021Z,3.06
2017-11-29T07:24:42.020Z,3.15
2017-11-29T07:25:42.044Z,3.11
2017-11-29T07:26:42.074Z,3.15
2017-11-29T07:27:42.064Z,3.21
2017-11-29T07:28:42.078Z,3.15
2017-11-29T07:29:42.102Z,3.11
2017-11-29T07:30:56.780Z,3.15
2017-11-29T07:31:41.909Z,3.15
2017-11-29T07:32:42.172Z,3.18
2017-11-29T07:33:42.188Z,3.23
2017-11-29T07:34:42.186Z,3.32
2017-11-29T07:35:42.206Z,3.23
2017-11-29T07:36:42.218Z,3.33
2017-11-29T07:38:56.929Z,3.28
2017-11-29T07:39:42.305Z,3.31
2017-11-29T07:40:42.018Z,3.32
2017-11-29T07:41:42.276Z,3.47
2017-11-29T07:42:42.326Z,3.36
2017-11-29T07:43:42.346Z,3.39
2017-11-29T07:44:42.313Z,3.42
2017-11-29T07:45:57.002Z,3.33
2017-11-29T07:46:42.356Z,3.35
2017-11-29T07:47:42.378Z,3.48
2017-11-29T07:48:42.449Z,3.6
2017-11-29T07:49:42.430Z,3.55
2017-11-29T07:51:42.465Z,3.61
2017-11-29T07:52:42.463Z,3.68
2017-11-29T07:53:42.491Z,3.62
2017-11-29T07:54:57.136Z,3.65
2017-11-29T07:55:42.525Z,3.62
2017-11-29T07:56:42.500Z,3.6
2017-11-29T07:57:42.508Z,3.75
2017-11-29T07:58:42.552Z,3.68
2017-11-29T07:59:57.229Z,3.76
2017-11-29T08:00:42.579Z,3.8
2017-11-29T08:01:42.575Z,3.79
2017-11-29T08:02:42.614Z,3.76
2017-11-29T08:03:42.410Z,3.83
2017-11-29T08:04:42.650Z,3.76
2017-11-29T08:05:42.737Z,3.86
2017-11-29T08:06:42.665Z,3.86
2017-11-29T08:07:42.695Z,3.84
2017-11-29T08:09:42.729Z,3.8
2017-11-29T08:10:57.404Z,3.88
2017-11-29T08:11:42.730Z,3.79
2017-11-29T08:12:42.761Z,3.83
2017-11-29T08:13:42.525Z,3.86
2017-11-29T08:14:42.788Z,3.87
2017-11-29T08:15:57.470Z,3.94
2017-11-29T08:16:42.793Z,3.9
2017-11-29T08:17:57.491Z,3.9
2017-11-29T08:18:42.910Z,3.9
2017-11-29T08:19:42.892Z,3.91
2017-11-29T08:20:42.864Z,3.86
2017-11-29T08:21:42.868Z,3.83
2017-11-29T08:22:42.629Z,3.87
2017-11-29T08:23:42.964Z,3.79
2017-11-29T08:25:57.634Z,3.79
2017-11-29T08:26:42.953Z,3.86
2017-11-29T08:27:42.991Z,3.7
2017-11-29T08:28:43.005Z,3.75
2017-11-29T08:29:43.033Z,3.83
2017-11-29T08:30:57.718Z,3.7
2017-11-29T08:31:43.067Z,3.62
2017-11-29T08:32:43.066Z,3.7
2017-11-29T08:33:43.057Z,3.73
2017-11-29T08:34:43.114Z,3.69
2017-11-29T08:35:43.127Z,3.68
2017-11-29T08:36:43.118Z,3.73
2017-11-29T08:37:43.140Z,3.72
2017-11-29T08:38:43.140Z,3.84
2017-11-29T08:40:43.201Z,3.79
2017-11-29T08:41:43.221Z,3.83
2017-11-29T08:42:43.215Z,3.78
2017-11-29T08:43:43.227Z,3.83
2017-11-29T08:44:43.262Z,3.86
2017-11-29T08:45:43.290Z,3.83
2017-11-29T08:46:43.262Z,3.86
2017-11-29T08:47:57.690Z,3.76
2017-11-29T08:48:43.322Z,3.72
2017-11-29T08:49:43.334Z,3.75
2017-11-29T08:50:43.365Z,3.69
2017-11-29T08:51:43.390Z,3.62
2017-11-29T08:52:43.349Z,3.6
2017-11-29T08:53:43.385Z,3.6
2017-11-29T08:55:43.440Z,3.65
2017-11-29T08:56:43.444Z,3.75
2017-11-29T08:57:58.106Z,3.76
2017-11-29T08:58:43.466Z,3.76
2017-11-29T08:59:58.152Z,3.84
2017-11-29T09:00:43.493Z,3.73
2017-11-29T09:02:43.534Z,3.76
2017-11-29T09:03:43.284Z,3.72
2017-11-29T09:04:43.552Z,3.83
2017-11-29T09:05:43.560Z,3.83
2017-11-29T09:06:43.572Z,3.86
2017-11-29T09:07:43.580Z,3.91
2017-11-29T09:08:43.354Z,3.83
2017-11-29T09:09:43.659Z,4.02
2017-11-29T09:10:43.657Z,3.97
2017-11-29T09:11:43.411Z,3.98
2017-11-29T09:12:43.738Z,3.93
2017-11-29T09:13:58.371Z,4.02
2017-11-29T09:15:43.751Z,4.04
2017-11-29T09:16:43.781Z,4.04
2017-11-29T09:17:43.502Z,4.12
2017-11-29T09:18:43.803Z,4.15
2017-11-29T09:19:43.792Z,4.15
2017-11-29T09:20:43.823Z,4.2
2017-11-29T09:21:43.852Z,4.2
2017-11-29T09:22:43.568Z,4.06
2017-11-29T09:23:43.832Z,4.11
2017-11-29T09:24:43.848Z,4.22
2017-11-29T09:25:43.886Z,4.16
2017-11-29T09:26:43.918Z,4.2
2017-11-29T09:27:43.913Z,4.16
2017-11-29T09:28:43.940Z,4.04
2017-11-29T09:29:58.619Z,4.22
2017-11-29T09:30:43.967Z,4.14
2017-11-29T09:31:43.992Z,4.05
2017-11-29T09:32:43.996Z,4.23
2017-11-29T09:33:44.016Z,4.29
2017-11-29T09:34:44.048Z,4.27
2017-11-29T09:35:44.029Z,4.26
2017-11-29T09:36:58.714Z,4.29
2017-11-29T09:38:44.097Z,4.33
2017-11-29T09:39:44.120Z,4.51
2017-11-29T09:40:58.544Z,4.52
2017-11-29T09:41:44.119Z,4.59
2017-11-29T09:42:44.178Z,4.54
2017-11-29T09:43:44.160Z,4.58
2017-11-29T09:44:44.177Z,4.59
2017-11-29T09:45:58.886Z,4.52
2017-11-29T09:46:44.243Z,4.5
2017-11-29T09:47:44.226Z,4.41
2017-11-29T09:48:44.236Z,4.45
2017-11-29T09:49:44.263Z,4.41
2017-11-29T09:50:44.281Z,4.48
2017-11-29T09:51:44.279Z,4.55
2017-11-29T09:52:44.442Z,4.62
2017-11-29T09:53:44.321Z,4.69
2017-11-29T09:54:44.350Z,4.73
2017-11-29T09:55:44.389Z,4.7
2017-11-29T09:56:44.135Z,4.73
2017-11-29T09:57:44.427Z,4.69
2017-11-29T09:58:44.467Z,4.73
2017-11-29T09:59:44.438Z,4.78
2017-11-29T10:00:59.131Z,4.82
2017-11-29T10:01:44.458Z,4.72
2017-11-29T10:02:44.486Z,4.66
2017-11-29T10:03:44.491Z,4.66
2017-11-29T10:04:44.548Z,4.62
2017-11-29T10:05:44.526Z,4.65
2017-11-29T10:06:44.569Z,4.69
2017-11-29T10:08:44.327Z,4.82
2017-11-29T10:09:44.608Z,4.77
2017-11-29T10:10:44.708Z,4.77
2017-11-29T10:11:44.619Z,4.69
2017-11-29T10:12:44.619Z,4.77
2017-11-29T10:13:44.647Z,4.7
2017-11-29T10:14:44.400Z,4.7
2017-11-29T10:15:44.693Z,4.8
2017-11-29T10:16:44.704Z,4.67
2017-11-29T10:17:44.699Z,4.88
2017-11-29T10:18:44.861Z,4.8
2017-11-29T10:19:44.775Z,4.84
2017-11-29T10:20:44.748Z,4.7
2017-11-29T10:21:44.528Z,4.73
2017-11-29T10:22:44.834Z,4.84
2017-11-29T10:23:44.805Z,4.82
2017-11-29T10:24:44.836Z,4.78
2017-11-29T10:25:44.844Z,4.8
2017-11-29T10:26:44.867Z,4.84
2017-11-29T10:27:44.882Z,4.88
2017-11-29T10:29:44.885Z,4.97
2017-11-29T10:30:44.934Z,4.97
2017-11-29T10:31:45.043Z,5.02
2017-11-29T10:32:59.373Z,4.92
2017-11-29T10:33:44.998Z,4.99
2017-11-29T10:34:59.663Z,4.96
2017-11-29T10:35:59.685Z,5.1
2017-11-29T10:36:59.693Z,5.13
2017-11-29T10:37:59.693Z,5.15
2017-11-29T10:39:44.842Z,5.22
2017-11-29T10:40:59.746Z,5.3
2017-11-29T10:41:59.513Z,5.4
2017-11-29T10:42:45.128Z,5.42
2017-11-29T10:43:45.139Z,5.39
2017-11-29T10:44:45.138Z,5.36
2017-11-29T10:45:45.204Z,5.36
2017-11-29T10:46:45.213Z,5.24
2017-11-29T10:47:44.934Z,5.3
2017-11-29T10:49:45.236Z,5.33
2017-11-29T10:50:45.097Z,5.36
2017-11-29T10:51:45.289Z,5.33
2017-11-29T10:52:45.310Z,5.39
2017-11-29T10:53:59.975Z,5.35
2017-11-29T10:54:45.309Z,5.31
2017-11-29T10:56:45.361Z,5.3
2017-11-29T10:57:45.346Z,5.33
2017-11-29T10:58:45.404Z,5.35
2017-11-29T10:59:45.400Z,5.4
2017-11-29T11:00:45.417Z,5.43
2017-11-29T11:01:45.426Z,5.46
2017-11-29T11:02:45.470Z,5.42
2017-11-29T11:03:45.496Z,5.38
2017-11-29T11:05:00.156Z,5.48
2017-11-29T11:05:45.490Z,5.6
2017-11-29T11:06:45.524Z,5.6
2017-11-29T11:07:45.513Z,5.49
2017-11-29T11:08:45.567Z,5.56
2017-11-29T11:09:45.304Z,5.6
2017-11-29T11:10:59.996Z,5.54
2017-11-29T11:11:45.615Z,5.43
2017-11-29T11:12:45.347Z,5.61
2017-11-29T11:13:45.645Z,5.51
2017-11-29T11:14:45.630Z,5.43
2017-11-29T11:15:45.657Z,5.42
2017-11-29T11:16:45.411Z,5.58
2017-11-29T11:17:45.677Z,5.53
2017-11-29T11:18:45.712Z,5.68
2017-11-29T11:19:45.729Z,5.74
2017-11-29T11:21:00.496Z,5.75
2017-11-29T11:21:45.766Z,5.78
2017-11-29T11:22:45.524Z,5.76
2017-11-29T11:23:45.808Z,5.74
2017-11-29T11:24:45.547Z,5.78
2017-11-29T11:25:45.565Z,5.78
2017-11-29T11:26:45.824Z,5.86
2017-11-29T11:28:45.980Z,5.85
2017-11-29T11:29:45.915Z,5.76
2017-11-29T11:30:45.908Z,5.79
2017-11-29T11:31:45.955Z,5.96
2017-11-29T11:32:45.937Z,5.97
2017-11-29T11:33:45.940Z,5.99
2017-11-29T11:34:45.721Z,5.97
2017-11-29T11:36:00.666Z,5.93
2017-11-29T11:36:45.998Z,5.94
2017-11-29T11:37:46.024Z,5.97
2017-11-29T11:38:46.028Z,5.94
2017-11-29T11:39:46.063Z,5.96
2017-11-29T11:40:45.802Z,5.94
2017-11-29T11:41:46.084Z,5.97
2017-11-29T11:42:46.109Z,5.94
2017-11-29T11:43:46.147Z,5.94
2017-11-29T11:44:46.183Z,5.96
2017-11-29T11:45:46.161Z,5.99
2017-11-29T11:46:46.168Z,5.99
2017-11-29T11:47:46.184Z,5.97
2017-11-29T11:48:46.201Z,5.94
2017-11-29T11:49:46.220Z,6
2017-11-29T11:50:46.243Z,5.97
2017-11-29T11:51:46.262Z,6.01
2017-11-29T11:52:46.258Z,6.15
2017-11-29T11:53:46.277Z,6.14
2017-11-29T11:54:46.315Z,6.09
2017-11-29T11:55:46.081Z,6.08
2017-11-29T11:56:46.071Z,6.09
2017-11-29T11:57:46.360Z,6.15
2017-11-29T11:58:46.369Z,6.06
2017-11-29T11:59:46.457Z,6.03
2017-11-29T12:00:46.157Z,6.14
2017-11-29T12:01:46.175Z,6.08
2017-11-29T12:02:46.451Z,6.11
2017-11-29T12:03:46.454Z,6.06
2017-11-29T12:05:46.250Z,6.08
2017-11-29T12:06:46.509Z,6.12
2017-11-29T12:08:01.175Z,6.14
2017-11-29T12:08:46.300Z,6.04
2017-11-29T12:09:46.552Z,6.11
2017-11-29T12:10:46.325Z,6.17
2017-11-29T12:11:46.348Z,6.14
2017-11-29T12:12:46.342Z,6.15
2017-11-29T12:14:01.026Z,6.19
2017-11-29T12:14:46.662Z,6.19
2017-11-29T12:16:46.400Z,6.04
2017-11-29T12:18:46.740Z,6.31
2017-11-29T12:19:46.745Z,6.27
2017-11-29T12:20:46.480Z,6.21
2017-11-29T12:21:46.770Z,6.27
2017-11-29T12:22:46.271Z,6.09
2017-11-29T12:24:01.440Z,6.08
2017-11-29T12:24:46.803Z,6.14
2017-11-29T12:25:46.809Z,6.12
2017-11-29T12:26:46.819Z,6.17
2017-11-29T12:27:46.893Z,6.11
2017-11-29T12:28:46.876Z,6.15
2017-11-29T12:29:46.913Z,6.09
2017-11-29T12:30:46.660Z,6.15
2017-11-29T12:31:46.666Z,6.08
2017-11-29T12:32:46.965Z,6.06
2017-11-29T12:33:46.970Z,6.14
2017-11-29T12:34:46.982Z,6.18
2017-11-29T12:35:47.015Z,6.21
2017-11-29T12:36:47.010Z,6.14
2017-11-29T12:37:47.008Z,6.21
2017-11-29T12:38:47.049Z,6.09
2017-11-29T12:40:01.832Z,6.12
2017-11-29T12:40:46.824Z,6.14
2017-11-29T12:41:47.102Z,6.18
2017-11-29T12:42:47.101Z,6.17
2017-11-29T12:44:01.804Z,6.17
2017-11-29T12:45:01.814Z,6.11
2017-11-29T12:45:47.191Z,6.09
2017-11-29T12:47:47.201Z,6.18
2017-11-29T12:48:47.244Z,6.03
2017-11-29T12:49:47.255Z,6.11
2017-11-29T12:50:47.223Z,6.09
2017-11-29T12:51:47.264Z,6.01
2017-11-29T12:52:47.291Z,5.96
2017-11-29T12:53:47.303Z,6.01
2017-11-29T12:54:47.297Z,5.99
2017-11-29T12:56:01.989Z,6.01
2017-11-29T12:56:47.350Z,6.09
2017-11-29T12:57:47.366Z,6.09
2017-11-29T12:58:47.379Z,6.06
2017-11-29T13:00:02.066Z,6.06
2017-11-29T13:01:02.173Z,6.08
2017-11-29T13:01:47.455Z,6.11
2017-11-29T13:02:47.447Z,6.03
2017-11-29T13:03:47.464Z,6.12
2017-11-29T13:04:47.459Z,6.09
2017-11-29T13:05:47.500Z,6.11
2017-11-29T13:06:47.529Z,6.09
2017-11-29T13:07:47.272Z,6.18
2017-11-29T13:08:47.554Z,6.19
2017-11-29T13:09:47.589Z,6.06
2017-11-29T13:11:02.237Z,6.09
2017-11-29T13:11:47.354Z,5.99
2017-11-29T13:12:47.653Z,6.01
2017-11-29T13:13:47.667Z,5.96
2017-11-29T13:14:47.680Z,5.99
2017-11-29T13:15:47.702Z,6.01
2017-11-29T13:16:47.712Z,6.06
2017-11-29T13:17:47.694Z,6.04
2017-11-29T13:18:47.733Z,6.06
2017-11-29T13:19:47.756Z,6.06
2017-11-29T13:20:47.762Z,6.08
2017-11-29T13:21:47.513Z,6.09
2017-11-29T13:22:47.788Z,6.03
2017-11-29T13:23:47.802Z,6.03
2017-11-29T13:25:47.838Z,5.97
2017-11-29T13:26:47.840Z,5.96
2017-11-29T13:27:47.877Z,5.91
2017-11-29T13:28:47.896Z,5.94
2017-11-29T13:30:02.556Z,5.86
2017-11-29T13:30:47.947Z,5.93
2017-11-29T13:31:47.950Z,5.89
2017-11-29T13:32:47.964Z,5.82
2017-11-29T13:34:02.635Z,5.83
2017-11-29T13:35:48.012Z,5.85
2017-11-29T13:36:48.004Z,5.86
2017-11-29T13:37:48.075Z,5.82
2017-11-29T13:38:48.076Z,5.82
2017-11-29T13:39:48.093Z,5.81
2017-11-29T13:40:48.095Z,5.83
2017-11-29T13:41:48.102Z,5.68
2017-11-29T13:43:02.776Z,5.75
2017-11-29T13:43:48.127Z,5.75
2017-11-29T13:44:48.173Z,5.68
2017-11-29T13:45:48.185Z,5.72
2017-11-29T13:47:02.847Z,5.57
2017-11-29T13:48:48.257Z,5.58
2017-11-29T13:49:48.233Z,5.57
2017-11-29T13:50:48.273Z,5.61
2017-11-29T13:51:48.021Z,5.54
2017-11-29T13:52:48.278Z,5.49
2017-11-29T13:53:48.340Z,5.54
2017-11-29T13:54:48.324Z,5.49
2017-11-29T13:55:48.374Z,5.51
2017-11-29T13:56:48.341Z,5.49
2017-11-29T13:57:48.405Z,5.51
2017-11-29T13:59:03.040Z,5.39
2017-11-29T13:59:48.213Z,5.42
2017-11-29T14:01:48.463Z,5.33
2017-11-29T14:02:48.462Z,5.27
2017-11-29T14:03:48.487Z,5.18
2017-11-29T14:04:48.595Z,5.12
2017-11-29T14:05:48.519Z,5.1
2017-11-29T14:06:48.000Z,5.17
2017-11-29T14:07:48.544Z,5.07
2017-11-29T14:08:48.558Z,5.07
2017-11-29T14:09:50.000Z,5.04
2017-11-29T14:10:48.630Z,4.99
2017-11-29T14:11:48.618Z,5.04